sensor_id;sensor_type;location;lat;lon;timestamp;pressure;altitude;pressure_sealevel;temperature;humidity
64404;BME280;50726;54.912;-8.392;2023-01-28T00:00:45;102344.19;;;34.47;39.64
64404;BME280;50726;54.912;-8.392;2023-01-28T00:03:10;102344.72;;;33.27;40.53
64404;BME280;50726;54.912;-8.392;2023-01-28T00:05:36;102344.59;;;35.88;37.71
64404;BME280;50726;54.912;-8.392;2023-01-28T00:08:02;102344.59;;;35.17;37.83
64404;BME280;50726;54.912;-8.392;2023-01-28T00:10:27;102351.16;;;36.55;36.90
64404;BME280;50726;54.912;-8.392;2023-01-28T00:12:53;102351.25;;;35.94;36.22
64404;BME280;50726;54.912;-8.392;2023-01-28T00:15:19;102361.41;;;35.83;36.47
64404;BME280;50726;54.912;-8.392;2023-01-28T00:17:44;102360.63;;;35.65;37.95
64404;BME280;50726;54.912;-8.392;2023-01-28T00:20:10;102360.81;;;35.98;37.24
64404;BME280;50726;54.912;-8.392;2023-01-28T00:22:36;102362.78;;;38.38;35.79
64404;BME280;50726;54.912;-8.392;2023-01-28T00:25:02;102360.44;;;35.21;37.27
64404;BME280;50726;54.912;-8.392;2023-01-28T00:27:28;102357.34;;;31.95;41.44
64404;BME280;50726;54.912;-8.392;2023-01-28T00:29:55;102361.56;;;31.13;44.92
64404;BME280;50726;54.912;-8.392;2023-01-28T00:32:21;102358.81;;;30.91;44.97
64404;BME280;50726;54.912;-8.392;2023-01-28T00:34:46;102364.47;;;31.32;44.27
64404;BME280;50726;54.912;-8.392;2023-01-28T00:37:14;102371.06;;;31.40;44.91
64404;BME280;50726;54.912;-8.392;2023-01-28T00:39:40;102377.69;;;32.21;43.37
64404;BME280;50726;54.912;-8.392;2023-01-28T00:42:05;102375.78;;;32.11;43.21
64404;BME280;50726;54.912;-8.392;2023-01-28T00:44:31;102373.09;;;30.71;44.47
64404;BME280;50726;54.912;-8.392;2023-01-28T00:46:57;102367.03;;;31.55;44.06
64404;BME280;50726;54.912;-8.392;2023-01-28T00:49:22;102378.97;;;31.74;43.67
64404;BME280;50726;54.912;-8.392;2023-01-28T00:51:48;102381.41;;;29.99;45.82
64404;BME280;50726;54.912;-8.392;2023-01-28T00:54:15;102385.69;;;31.91;44.06
64404;BME280;50726;54.912;-8.392;2023-01-28T00:56:40;102377.56;;;31.04;44.88
64404;BME280;50726;54.912;-8.392;2023-01-28T00:59:06;102376.00;;;29.52;46.58
64404;BME280;50726;54.912;-8.392;2023-01-28T01:01:32;102371.78;;;28.87;48.23
64404;BME280;50726;54.912;-8.392;2023-01-28T01:03:57;102371.75;;;30.53;45.32
64404;BME280;50726;54.912;-8.392;2023-01-28T01:06:38;102367.69;;;30.48;45.86
64404;BME280;50726;54.912;-8.392;2023-01-28T01:09:06;102369.47;;;29.79;47.54
64404;BME280;50726;54.912;-8.392;2023-01-28T01:11:33;102373.47;;;28.12;50.03
64404;BME280;50726;54.912;-8.392;2023-01-28T01:13:59;102375.78;;;29.30;47.54
64404;BME280;50726;54.912;-8.392;2023-01-28T01:16:28;102371.28;;;30.71;45.86
64404;BME280;50726;54.912;-8.392;2023-01-28T01:18:58;102384.03;;;30.12;46.88
64404;BME280;50726;54.912;-8.392;2023-01-28T01:21:27;102379.13;;;30.17;47.16
64404;BME280;50726;54.912;-8.392;2023-01-28T01:23:53;102376.06;;;30.45;45.73
64404;BME280;50726;54.912;-8.392;2023-01-28T01:26:18;102374.91;;;30.01;46.07
64404;BME280;50726;54.912;-8.392;2023-01-28T01:28:44;102376.88;;;30.91;45.97
64404;BME280;50726;54.912;-8.392;2023-01-28T01:31:13;102376.41;;;30.40;47.16
64404;BME280;50726;54.912;-8.392;2023-01-28T01:33:41;102385.28;;;28.48;48.59
64404;BME280;50726;54.912;-8.392;2023-01-28T01:36:08;102378.34;;;28.83;48.77
64404;BME280;50726;54.912;-8.392;2023-01-28T01:38:33;102370.44;;;27.91;49.33
64404;BME280;50726;54.912;-8.392;2023-01-28T01:41:03;102373.66;;;27.83;50.26
64404;BME280;50726;54.912;-8.392;2023-01-28T01:43:49;102366.00;;;31.14;44.58
64404;BME280;50726;54.912;-8.392;2023-01-28T01:48:55;102364.53;;;31.64;44.97
64404;BME280;50726;54.912;-8.392;2023-01-28T01:51:26;102355.47;;;32.58;44.06
64404;BME280;50726;54.912;-8.392;2023-01-28T01:53:54;102365.47;;;29.48;47.21
64404;BME280;50726;54.912;-8.392;2023-01-28T01:56:25;102363.63;;;31.20;46.07
64404;BME280;50726;54.912;-8.392;2023-01-28T01:58:54;102360.44;;;28.95;48.99
64404;BME280;50726;54.912;-8.392;2023-01-28T02:01:24;102365.66;;;30.17;47.12
64404;BME280;50726;54.912;-8.392;2023-01-28T02:03:52;102382.78;;;28.71;47.72
64404;BME280;50726;54.912;-8.392;2023-01-28T02:06:20;102382.91;;;27.92;49.91
64404;BME280;50726;54.912;-8.392;2023-01-28T02:08:46;102391.38;;;27.59;50.53
64404;BME280;50726;54.912;-8.392;2023-01-28T02:11:13;102390.66;;;29.12;48.59
64404;BME280;50726;54.912;-8.392;2023-01-28T02:13:45;102399.13;;;30.26;47.07
64404;BME280;50726;54.912;-8.392;2023-01-28T02:16:13;102403.88;;;29.39;47.85
64404;BME280;50726;54.912;-8.392;2023-01-28T02:18:39;102400.00;;;27.65;50.07
64404;BME280;50726;54.912;-8.392;2023-01-28T02:24:16;102402.47;;;28.85;48.98
64404;BME280;50726;54.912;-8.392;2023-01-28T02:29:26;102427.81;;;28.56;50.35
64404;BME280;50726;54.912;-8.392;2023-01-28T02:37:28;102417.38;;;28.12;50.72
64404;BME280;50726;54.912;-8.392;2023-01-28T02:40:01;102404.34;;;28.06;51.48
64404;BME280;50726;54.912;-8.392;2023-01-28T02:42:33;102408.88;;;27.93;50.75
64404;BME280;50726;54.912;-8.392;2023-01-28T02:44:59;102407.25;;;28.16;49.20
64404;BME280;50726;54.912;-8.392;2023-01-28T02:47:25;102397.13;;;28.20;49.65
64404;BME280;50726;54.912;-8.392;2023-01-28T02:50:12;102387.41;;;30.02;47.73
64404;BME280;50726;54.912;-8.392;2023-01-28T02:53:05;102386.75;;;30.23;47.29
64404;BME280;50726;54.912;-8.392;2023-01-28T03:01:17;102381.69;;;29.60;47.48
64404;BME280;50726;54.912;-8.392;2023-01-28T03:04:13;102380.94;;;30.62;45.63
64404;BME280;50726;54.912;-8.392;2023-01-28T03:06:45;102386.97;;;30.09;45.33
64404;BME280;50726;54.912;-8.392;2023-01-28T03:09:14;102386.47;;;30.49;46.08
64404;BME280;50726;54.912;-8.392;2023-01-28T03:12:10;102394.19;;;29.61;45.92
64404;BME280;50726;54.912;-8.392;2023-01-28T03:15:20;102389.19;;;30.72;44.57
64404;BME280;50726;54.912;-8.392;2023-01-28T03:18:43;102385.25;;;32.27;43.17
64404;BME280;50726;54.912;-8.392;2023-01-28T03:21:37;102398.50;;;30.45;45.56
64404;BME280;50726;54.912;-8.392;2023-01-28T03:24:40;102407.69;;;31.86;42.63
64404;BME280;50726;54.912;-8.392;2023-01-28T03:30:39;102392.34;;;33.69;40.47
64404;BME280;50726;54.912;-8.392;2023-01-28T03:33:26;102411.63;;;30.84;43.63
64404;BME280;50726;54.912;-8.392;2023-01-28T03:36:11;102404.50;;;30.49;42.42
64404;BME280;50726;54.912;-8.392;2023-01-28T03:38:56;102395.94;;;33.20;40.11
64404;BME280;50726;54.912;-8.392;2023-01-28T03:41:24;102390.66;;;33.29;40.21
64404;BME280;50726;54.912;-8.392;2023-01-28T03:43:50;102391.38;;;33.31;39.32
64404;BME280;50726;54.912;-8.392;2023-01-28T03:46:17;102397.66;;;33.61;38.98
64404;BME280;50726;54.912;-8.392;2023-01-28T03:48:43;102394.66;;;33.25;38.52
64404;BME280;50726;54.912;-8.392;2023-01-28T03:51:09;102401.41;;;32.79;39.26
64404;BME280;50726;54.912;-8.392;2023-01-28T03:53:36;102412.34;;;33.09;39.18
64404;BME280;50726;54.912;-8.392;2023-01-28T03:56:02;102404.94;;;33.31;39.19
64404;BME280;50726;54.912;-8.392;2023-01-28T03:58:28;102412.97;;;32.81;39.41
64404;BME280;50726;54.912;-8.392;2023-01-28T04:01:13;102404.50;;;33.26;38.93
64404;BME280;50726;54.912;-8.392;2023-01-28T04:03:38;102409.13;;;34.03;38.33
64404;BME280;50726;54.912;-8.392;2023-01-28T04:06:06;102406.78;;;33.70;38.83
64404;BME280;50726;54.912;-8.392;2023-01-28T04:08:33;102406.81;;;33.60;38.20
64404;BME280;50726;54.912;-8.392;2023-01-28T04:10:59;102414.28;;;34.06;38.50
64404;BME280;50726;54.912;-8.392;2023-01-28T04:13:43;102423.28;;;32.25;38.86
64404;BME280;50726;54.912;-8.392;2023-01-28T04:16:09;102423.84;;;32.19;40.24
64404;BME280;50726;54.912;-8.392;2023-01-28T04:18:35;102422.69;;;31.91;40.29
64404;BME280;50726;54.912;-8.392;2023-01-28T04:21:01;102422.53;;;32.13;40.12
64404;BME280;50726;54.912;-8.392;2023-01-28T04:23:27;102412.41;;;30.05;41.31
64404;BME280;50726;54.912;-8.392;2023-01-28T04:25:54;102418.53;;;31.86;40.82
64404;BME280;50726;54.912;-8.392;2023-01-28T04:28:20;102421.53;;;31.06;40.82
64404;BME280;50726;54.912;-8.392;2023-01-28T04:30:46;102424.88;;;30.30;41.97
64404;BME280;50726;54.912;-8.392;2023-01-28T04:33:11;102433.41;;;31.59;41.43
64404;BME280;50726;54.912;-8.392;2023-01-28T04:35:37;102430.31;;;31.20;40.65
64404;BME280;50726;54.912;-8.392;2023-01-28T04:38:04;102439.47;;;31.52;40.43
64404;BME280;50726;54.912;-8.392;2023-01-28T04:40:29;102433.59;;;30.57;41.80
64404;BME280;50726;54.912;-8.392;2023-01-28T04:42:56;102439.09;;;30.89;41.54
64404;BME280;50726;54.912;-8.392;2023-01-28T04:45:22;102438.38;;;30.30;41.86
64404;BME280;50726;54.912;-8.392;2023-01-28T04:47:49;102442.44;;;30.81;40.72
64404;BME280;50726;54.912;-8.392;2023-01-28T04:50:16;102438.16;;;32.62;39.46
64404;BME280;50726;54.912;-8.392;2023-01-28T04:52:42;102441.88;;;31.11;41.01
64404;BME280;50726;54.912;-8.392;2023-01-28T04:55:09;102452.53;;;29.98;41.13
64404;BME280;50726;54.912;-8.392;2023-01-28T04:57:35;102451.00;;;29.09;43.91
64404;BME280;50726;54.912;-8.392;2023-01-28T05:00:00;102451.81;;;28.72;44.36
64404;BME280;50726;54.912;-8.392;2023-01-28T05:02:26;102465.72;;;27.31;46.03
64404;BME280;50726;54.912;-8.392;2023-01-28T05:04:52;102465.75;;;27.59;46.56
64404;BME280;50726;54.912;-8.392;2023-01-28T05:07:18;102465.41;;;30.06;43.11
64404;BME280;50726;54.912;-8.392;2023-01-28T05:09:44;102466.22;;;31.11;41.65
64404;BME280;50726;54.912;-8.392;2023-01-28T05:12:10;102463.19;;;32.23;40.04
64404;BME280;50726;54.912;-8.392;2023-01-28T05:14:35;102456.84;;;32.65;39.35
64404;BME280;50726;54.912;-8.392;2023-01-28T05:17:01;102459.19;;;31.31;40.67
64404;BME280;50726;54.912;-8.392;2023-01-28T05:19:27;102466.72;;;31.04;39.77
64404;BME280;50726;54.912;-8.392;2023-01-28T05:21:53;102464.16;;;32.85;38.97
64404;BME280;50726;54.912;-8.392;2023-01-28T05:24:19;102452.88;;;33.20;38.48
64404;BME280;50726;54.912;-8.392;2023-01-28T05:26:46;102463.25;;;35.08;36.10
64404;BME280;50726;54.912;-8.392;2023-01-28T05:29:11;102457.63;;;39.01;32.39
64404;BME280;50726;54.912;-8.392;2023-01-28T05:31:37;102448.13;;;37.17;33.25
64404;BME280;50726;54.912;-8.392;2023-01-28T05:34:03;102452.63;;;35.87;34.33
64404;BME280;50726;54.912;-8.392;2023-01-28T05:36:28;102460.44;;;35.10;35.74
64404;BME280;50726;54.912;-8.392;2023-01-28T05:38:54;102458.13;;;36.57;34.63
64404;BME280;50726;54.912;-8.392;2023-01-28T05:41:20;102453.28;;;35.63;34.75
64404;BME280;50726;54.912;-8.392;2023-01-28T05:43:46;102444.47;;;35.69;35.05
64404;BME280;50726;54.912;-8.392;2023-01-28T05:46:11;102446.03;;;34.71;35.46
64404;BME280;50726;54.912;-8.392;2023-01-28T05:48:37;102446.03;;;36.17;34.85
64404;BME280;50726;54.912;-8.392;2023-01-28T05:51:03;102447.63;;;36.62;34.00
64404;BME280;50726;54.912;-8.392;2023-01-28T05:53:30;102456.22;;;34.69;36.43
64404;BME280;50726;54.912;-8.392;2023-01-28T05:55:56;102463.16;;;34.44;36.48
64404;BME280;50726;54.912;-8.392;2023-01-28T05:58:21;102473.38;;;31.56;38.59
64404;BME280;50726;54.912;-8.392;2023-01-28T06:00:47;102480.22;;;32.98;38.53
64404;BME280;50726;54.912;-8.392;2023-01-28T06:03:13;102478.78;;;35.44;35.74
64404;BME280;50726;54.912;-8.392;2023-01-28T06:05:39;102482.78;;;36.82;34.47
64404;BME280;50726;54.912;-8.392;2023-01-28T06:08:05;102473.00;;;37.23;33.83
64404;BME280;50726;54.912;-8.392;2023-01-28T06:10:31;102472.00;;;35.48;34.33
64404;BME280;50726;54.912;-8.392;2023-01-28T06:12:56;102481.97;;;35.21;34.60
64404;BME280;50726;54.912;-8.392;2023-01-28T06:15:22;102475.50;;;35.22;34.86
64404;BME280;50726;54.912;-8.392;2023-01-28T06:17:48;102473.97;;;37.05;33.24
64404;BME280;50726;54.912;-8.392;2023-01-28T06:20:14;102475.75;;;37.14;33.44
64404;BME280;50726;54.912;-8.392;2023-01-28T06:22:41;102478.81;;;37.28;33.10
64404;BME280;50726;54.912;-8.392;2023-01-28T06:25:07;102477.97;;;37.19;32.41
64404;BME280;50726;54.912;-8.392;2023-01-28T06:27:34;102474.38;;;37.43;33.01
64404;BME280;50726;54.912;-8.392;2023-01-28T06:30:00;102476.47;;;37.74;32.20
64404;BME280;50726;54.912;-8.392;2023-01-28T06:32:26;102482.41;;;36.68;32.45
64404;BME280;50726;54.912;-8.392;2023-01-28T06:34:52;102482.06;;;37.48;32.41
64404;BME280;50726;54.912;-8.392;2023-01-28T06:37:18;102493.13;;;36.70;32.58
64404;BME280;50726;54.912;-8.392;2023-01-28T06:39:44;102482.03;;;35.66;33.27
64404;BME280;50726;54.912;-8.392;2023-01-28T06:42:10;102484.69;;;34.65;34.72
64404;BME280;50726;54.912;-8.392;2023-01-28T06:44:35;102495.56;;;35.21;34.06
64404;BME280;50726;54.912;-8.392;2023-01-28T06:47:01;102485.72;;;34.54;34.42
64404;BME280;50726;54.912;-8.392;2023-01-28T06:49:27;102491.03;;;35.12;34.17
64404;BME280;50726;54.912;-8.392;2023-01-28T06:51:53;102485.25;;;35.79;32.89
64404;BME280;50726;54.912;-8.392;2023-01-28T06:54:18;102477.06;;;35.79;33.41
64404;BME280;50726;54.912;-8.392;2023-01-28T06:56:44;102483.44;;;34.87;34.58
64404;BME280;50726;54.912;-8.392;2023-01-28T06:59:10;102490.97;;;34.18;34.54
64404;BME280;50726;54.912;-8.392;2023-01-28T07:01:35;102488.63;;;31.90;36.80
64404;BME280;50726;54.912;-8.392;2023-01-28T07:04:01;102489.53;;;31.34;37.04
64404;BME280;50726;54.912;-8.392;2023-01-28T07:06:27;102486.59;;;32.34;36.22
64404;BME280;50726;54.912;-8.392;2023-01-28T07:08:52;102481.94;;;32.36;36.82
64404;BME280;50726;54.912;-8.392;2023-01-28T07:11:18;102474.69;;;33.29;36.61
64404;BME280;50726;54.912;-8.392;2023-01-28T07:13:44;102482.63;;;34.77;34.72
64404;BME280;50726;54.912;-8.392;2023-01-28T07:16:13;102475.47;;;36.91;33.92
64404;BME280;50726;54.912;-8.392;2023-01-28T07:18:38;102475.97;;;36.51;33.11
64404;BME280;50726;54.912;-8.392;2023-01-28T07:21:04;102466.56;;;37.65;32.75
64404;BME280;50726;54.912;-8.392;2023-01-28T07:23:31;102463.63;;;37.33;32.82
64404;BME280;50726;54.912;-8.392;2023-01-28T07:26:04;102462.63;;;35.60;33.19
64404;BME280;50726;54.912;-8.392;2023-01-28T07:28:30;102463.47;;;37.10;33.38
64404;BME280;50726;54.912;-8.392;2023-01-28T07:30:56;102466.72;;;36.62;32.98
64404;BME280;50726;54.912;-8.392;2023-01-28T07:33:22;102459.63;;;35.72;33.18
64404;BME280;50726;54.912;-8.392;2023-01-28T07:35:48;102467.91;;;35.44;34.03
64404;BME280;50726;54.912;-8.392;2023-01-28T07:38:14;102473.22;;;35.90;34.00
64404;BME280;50726;54.912;-8.392;2023-01-28T07:40:39;102467.38;;;36.30;33.77
64404;BME280;50726;54.912;-8.392;2023-01-28T07:43:09;102460.53;;;38.11;31.23
64404;BME280;50726;54.912;-8.392;2023-01-28T07:45:35;102467.50;;;36.20;30.81
64404;BME280;50726;54.912;-8.392;2023-01-28T07:48:04;102463.25;;;36.60;31.27
64404;BME280;50726;54.912;-8.392;2023-01-28T07:50:32;102472.19;;;34.44;32.54
64404;BME280;50726;54.912;-8.392;2023-01-28T07:53:02;102460.84;;;35.15;32.48
64404;BME280;50726;54.912;-8.392;2023-01-28T07:55:28;102464.44;;;34.49;32.10
64404;BME280;50726;54.912;-8.392;2023-01-28T07:57:55;102467.69;;;34.15;32.93
64404;BME280;50726;54.912;-8.392;2023-01-28T08:00:22;102475.44;;;33.31;32.88
64404;BME280;50726;54.912;-8.392;2023-01-28T08:02:49;102483.56;;;34.58;32.04
64404;BME280;50726;54.912;-8.392;2023-01-28T08:05:19;102482.25;;;33.94;33.20
64404;BME280;50726;54.912;-8.392;2023-01-28T08:07:46;102482.63;;;34.77;33.02
64404;BME280;50726;54.912;-8.392;2023-01-28T08:10:18;102488.81;;;36.33;32.93
64404;BME280;50726;54.912;-8.392;2023-01-28T08:12:52;102487.00;;;37.28;30.97
64404;BME280;50726;54.912;-8.392;2023-01-28T08:15:18;102486.59;;;34.83;32.90
64404;BME280;50726;54.912;-8.392;2023-01-28T08:17:44;102496.91;;;36.16;33.00
64404;BME280;50726;54.912;-8.392;2023-01-28T08:20:10;102493.97;;;37.22;32.02
64404;BME280;50726;54.912;-8.392;2023-01-28T08:22:36;102495.69;;;36.72;31.65
64404;BME280;50726;54.912;-8.392;2023-01-28T08:25:02;102488.50;;;35.00;32.36
64404;BME280;50726;54.912;-8.392;2023-01-28T08:27:28;102489.66;;;35.44;31.59
64404;BME280;50726;54.912;-8.392;2023-01-28T08:29:53;102501.75;;;34.47;33.19
64404;BME280;50726;54.912;-8.392;2023-01-28T08:32:19;102505.25;;;34.67;32.92
64404;BME280;50726;54.912;-8.392;2023-01-28T08:34:45;102503.28;;;35.62;33.47
64404;BME280;50726;54.912;-8.392;2023-01-28T08:37:11;102497.06;;;34.39;32.48
64404;BME280;50726;54.912;-8.392;2023-01-28T08:39:36;102504.72;;;34.64;33.34
64404;BME280;50726;54.912;-8.392;2023-01-28T08:42:02;102499.44;;;35.37;33.07
64404;BME280;50726;54.912;-8.392;2023-01-28T08:44:30;102499.06;;;35.03;33.38
64404;BME280;50726;54.912;-8.392;2023-01-28T08:46:56;102500.88;;;34.09;34.07
64404;BME280;50726;54.912;-8.392;2023-01-28T08:49:21;102503.19;;;35.54;33.04
64404;BME280;50726;54.912;-8.392;2023-01-28T08:51:47;102501.34;;;34.80;32.25
64404;BME280;50726;54.912;-8.392;2023-01-28T08:54:13;102501.72;;;33.80;33.23
64404;BME280;50726;54.912;-8.392;2023-01-28T08:56:39;102492.44;;;33.92;32.74
64404;BME280;50726;54.912;-8.392;2023-01-28T08:59:10;102493.09;;;33.35;34.14
64404;BME280;50726;54.912;-8.392;2023-01-28T09:01:36;102493.94;;;32.75;33.75
64404;BME280;50726;54.912;-8.392;2023-01-28T09:04:02;102492.78;;;34.37;33.00
64404;BME280;50726;54.912;-8.392;2023-01-28T09:06:28;102493.66;;;35.03;31.87
64404;BME280;50726;54.912;-8.392;2023-01-28T09:08:58;102489.13;;;35.40;32.74
64404;BME280;50726;54.912;-8.392;2023-01-28T09:11:24;102498.75;;;34.50;33.60
64404;BME280;50726;54.912;-8.392;2023-01-28T09:13:49;102503.50;;;36.40;33.01
64404;BME280;50726;54.912;-8.392;2023-01-28T09:16:15;102499.59;;;34.61;32.91
64404;BME280;50726;54.912;-8.392;2023-01-28T09:18:41;102510.28;;;34.52;33.59
64404;BME280;50726;54.912;-8.392;2023-01-28T09:21:07;102498.78;;;36.16;32.71
64404;BME280;50726;54.912;-8.392;2023-01-28T09:23:35;102505.31;;;36.31;32.60
64404;BME280;50726;54.912;-8.392;2023-01-28T09:26:01;102512.00;;;36.10;32.35
64404;BME280;50726;54.912;-8.392;2023-01-28T09:28:28;102507.94;;;34.30;33.97
64404;BME280;50726;54.912;-8.392;2023-01-28T09:31:05;102523.41;;;33.99;34.01
64404;BME280;50726;54.912;-8.392;2023-01-28T09:33:31;102526.81;;;31.52;36.59
64404;BME280;50726;54.912;-8.392;2023-01-28T09:36:01;102528.06;;;31.59;37.60
64404;BME280;50726;54.912;-8.392;2023-01-28T09:38:28;102528.06;;;29.73;40.26
64404;BME280;50726;54.912;-8.392;2023-01-28T09:40:56;102527.75;;;30.73;38.66
64404;BME280;50726;54.912;-8.392;2023-01-28T09:43:53;102529.47;;;30.15;38.99
64404;BME280;50726;54.912;-8.392;2023-01-28T09:46:31;102534.31;;;30.34;39.44
64404;BME280;50726;54.912;-8.392;2023-01-28T09:48:58;102538.16;;;31.90;38.56
64404;BME280;50726;54.912;-8.392;2023-01-28T09:51:40;102535.28;;;32.46;37.75
64404;BME280;50726;54.912;-8.392;2023-01-28T09:56:45;102521.88;;;34.54;35.74
64404;BME280;50726;54.912;-8.392;2023-01-28T09:59:20;102520.34;;;34.80;34.47
64404;BME280;50726;54.912;-8.392;2023-01-28T10:01:59;102519.88;;;33.08;36.36
64404;BME280;50726;54.912;-8.392;2023-01-28T10:07:24;102524.56;;;33.87;36.09
64404;BME280;50726;54.912;-8.392;2023-01-28T10:12:31;102531.31;;;32.50;36.39
64404;BME280;50726;54.912;-8.392;2023-01-28T10:18:08;102524.34;;;35.60;34.24
64404;BME280;50726;54.912;-8.392;2023-01-28T10:25:47;102529.69;;;32.68;35.45
64404;BME280;50726;54.912;-8.392;2023-01-28T10:28:27;102531.94;;;31.00;38.58
64404;BME280;50726;54.912;-8.392;2023-01-28T10:30:53;102533.63;;;28.83;41.21
64404;BME280;50726;54.912;-8.392;2023-01-28T10:33:36;102534.16;;;30.13;40.58
64404;BME280;50726;54.912;-8.392;2023-01-28T10:36:02;102532.03;;;28.80;42.79
64404;BME280;50726;54.912;-8.392;2023-01-28T10:38:29;102526.19;;;29.98;41.49
64404;BME280;50726;54.912;-8.392;2023-01-28T10:40:59;102526.28;;;30.10;41.55
64404;BME280;50726;54.912;-8.392;2023-01-28T10:43:29;102531.63;;;33.19;38.30
64404;BME280;50726;54.912;-8.392;2023-01-28T10:45:58;102531.78;;;30.55;40.07
64404;BME280;50726;54.912;-8.392;2023-01-28T10:48:32;102522.47;;;32.79;39.40
64404;BME280;50726;54.912;-8.392;2023-01-28T10:51:01;102526.25;;;31.14;40.56
64404;BME280;50726;54.912;-8.392;2023-01-28T10:53:43;102526.06;;;29.64;41.58
64404;BME280;50726;54.912;-8.392;2023-01-28T10:56:17;102525.06;;;30.14;42.07
64404;BME280;50726;54.912;-8.392;2023-01-28T10:59:19;102530.53;;;30.37;41.38
64404;BME280;50726;54.912;-8.392;2023-01-28T11:04:23;102524.31;;;30.71;42.60
64404;BME280;50726;54.912;-8.392;2023-01-28T11:07:03;102516.53;;;28.97;43.90
64404;BME280;50726;54.912;-8.392;2023-01-28T11:09:34;102520.28;;;29.82;42.92
64404;BME280;50726;54.912;-8.392;2023-01-28T11:12:19;102514.72;;;30.08;41.94
64404;BME280;50726;54.912;-8.392;2023-01-28T11:14:50;102522.13;;;31.98;40.54
64404;BME280;50726;54.912;-8.392;2023-01-28T11:17:18;102512.47;;;31.52;40.49
64404;BME280;50726;54.912;-8.392;2023-01-28T11:19:44;102503.72;;;30.22;40.88
64404;BME280;50726;54.912;-8.392;2023-01-28T11:22:34;102512.84;;;29.97;40.88
64404;BME280;50726;54.912;-8.392;2023-01-28T11:25:13;102521.25;;;29.56;41.84
64404;BME280;50726;54.912;-8.392;2023-01-28T11:27:46;102521.22;;;30.41;41.59
64404;BME280;50726;54.912;-8.392;2023-01-28T11:30:33;102527.78;;;33.31;39.18
64404;BME280;50726;54.912;-8.392;2023-01-28T11:33:20;102505.41;;;34.18;36.86
64404;BME280;50726;54.912;-8.392;2023-01-28T11:35:54;102505.97;;;31.75;39.92
64404;BME280;50726;54.912;-8.392;2023-01-28T11:38:23;102509.38;;;31.89;39.66
64404;BME280;50726;54.912;-8.392;2023-01-28T11:40:55;102497.56;;;32.54;37.46
64404;BME280;50726;54.912;-8.392;2023-01-28T11:43:27;102502.47;;;33.01;38.19
64404;BME280;50726;54.912;-8.392;2023-01-28T11:46:18;102505.38;;;34.38;35.64
64404;BME280;50726;54.912;-8.392;2023-01-28T11:49:13;102488.28;;;33.48;36.18
64404;BME280;50726;54.912;-8.392;2023-01-28T11:57:25;102472.19;;;35.00;35.19
64404;BME280;50726;54.912;-8.392;2023-01-28T12:02:47;102468.28;;;35.31;35.16
64404;BME280;50726;54.912;-8.392;2023-01-28T12:08:34;102464.75;;;32.88;35.09
64404;BME280;50726;54.912;-8.392;2023-01-28T12:11:37;102457.19;;;33.53;35.07
64404;BME280;50726;54.912;-8.392;2023-01-28T12:33:48;102449.28;;;34.47;34.74
64404;BME280;50726;54.912;-8.392;2023-01-28T12:41:20;102449.75;;;31.91;37.11
64404;BME280;50726;54.912;-8.392;2023-01-28T12:44:01;102456.44;;;31.42;38.28
64404;BME280;50726;54.912;-8.392;2023-01-28T12:46:47;102450.16;;;33.40;35.45
64404;BME280;50726;54.912;-8.392;2023-01-28T12:49:18;102450.06;;;31.97;36.57
64404;BME280;50726;54.912;-8.392;2023-01-28T12:56:53;102447.72;;;32.66;37.29
64404;BME280;50726;54.912;-8.392;2023-01-28T12:59:38;102446.78;;;34.91;35.84
64404;BME280;50726;54.912;-8.392;2023-01-28T13:07:26;102455.84;;;33.96;35.73
64404;BME280;50726;54.912;-8.392;2023-01-28T13:10:05;102462.94;;;32.99;36.62
64404;BME280;50726;54.912;-8.392;2023-01-28T13:12:38;102453.31;;;33.26;36.47
64404;BME280;50726;54.912;-8.392;2023-01-28T13:15:09;102451.63;;;32.00;37.01
64404;BME280;50726;54.912;-8.392;2023-01-28T13:17:36;102443.06;;;32.16;36.78
64404;BME280;50726;54.912;-8.392;2023-01-28T13:20:13;102435.59;;;33.02;36.75
64404;BME280;50726;54.912;-8.392;2023-01-28T13:22:39;102446.31;;;32.10;37.51
64404;BME280;50726;54.912;-8.392;2023-01-28T13:25:20;102448.53;;;32.57;37.52
64404;BME280;50726;54.912;-8.392;2023-01-28T13:28:01;102425.88;;;33.39;36.58
64404;BME280;50726;54.912;-8.392;2023-01-28T13:30:30;102431.75;;;33.14;36.80
64404;BME280;50726;54.912;-8.392;2023-01-28T13:35:36;102431.31;;;33.29;35.98
64404;BME280;50726;54.912;-8.392;2023-01-28T13:38:08;102426.84;;;34.17;35.22
64404;BME280;50726;54.912;-8.392;2023-01-28T13:40:36;102426.09;;;34.52;35.76
64404;BME280;50726;54.912;-8.392;2023-01-28T13:43:05;102416.75;;;34.37;35.50
64404;BME280;50726;54.912;-8.392;2023-01-28T13:45:57;102407.75;;;33.00;37.37
64404;BME280;50726;54.912;-8.392;2023-01-28T13:48:50;102417.41;;;31.89;38.34
64404;BME280;50726;54.912;-8.392;2023-01-28T13:51:39;102402.28;;;32.90;36.78
64404;BME280;50726;54.912;-8.392;2023-01-28T13:54:20;102403.75;;;33.73;36.01
64404;BME280;50726;54.912;-8.392;2023-01-28T14:05:07;102379.50;;;34.57;35.04
64404;BME280;50726;54.912;-8.392;2023-01-28T14:19:03;102354.09;;;34.20;34.33
64404;BME280;50726;54.912;-8.392;2023-01-28T14:21:33;102355.13;;;33.99;35.41
64404;BME280;50726;54.912;-8.392;2023-01-28T14:23:59;102350.94;;;34.71;33.08
64404;BME280;50726;54.912;-8.392;2023-01-28T14:26:52;102356.63;;;34.50;33.14
64404;BME280;50726;54.912;-8.392;2023-01-28T14:29:49;102350.34;;;33.83;34.32
64404;BME280;50726;54.912;-8.392;2023-01-28T14:32:18;102341.97;;;32.78;35.29
64404;BME280;50726;54.912;-8.392;2023-01-28T14:34:45;102336.25;;;32.61;35.90
64404;BME280;50726;54.912;-8.392;2023-01-28T14:37:17;102322.13;;;32.67;36.71
64404;BME280;50726;54.912;-8.392;2023-01-28T14:39:52;102327.63;;;34.22;34.84
64404;BME280;50726;54.912;-8.392;2023-01-28T14:42:39;102333.53;;;34.36;33.19
64404;BME280;50726;54.912;-8.392;2023-01-28T14:51:01;102338.41;;;33.46;32.74
64404;BME280;50726;54.912;-8.392;2023-01-28T14:54:09;102331.03;;;32.38;32.96